Terminal Aerodrome Forecast
Issued by NWS

Home | Current Version | Previous Version | Text Only | Print | Product List | Glossary On
Versions: 1 2 3 4 5 6 7 8 9 10 11 12 13 14 15 16 17 18 19 20 21
776
FTUS43 KGRR 062340
TAFJXN
TAF
KJXN 062340Z 0700/0724 20008KT P6SM BKN035
     FM071400 21014G22KT P6SM BKN120=

USA.gov is the U.S. government's official web portal to all federal, state and local government web resources and services.